sensor_id;sensor_type;location;lat;lon;timestamp;P1;durP1;ratioP1;P2;durP2;ratioP2
22861;SDS011;11598;50.652;6.172;2023-07-08T00:09:47;10.40;;;6.13;;
22861;SDS011;11598;50.652;6.172;2023-07-08T00:19:48;11.80;;;6.47;;
22861;SDS011;11598;50.652;6.172;2023-07-08T00:29:48;14.68;;;6.78;;
22861;SDS011;11598;50.652;6.172;2023-07-08T00:39:48;11.63;;;6.10;;
22861;SDS011;11598;50.652;6.172;2023-07-08T00:49:52;9.95;;;6.20;;
22861;SDS011;11598;50.652;6.172;2023-07-08T01:00:05;14.15;;;6.97;;
22861;SDS011;11598;50.652;6.172;2023-07-08T01:10:12;12.88;;;7.05;;
22861;SDS011;11598;50.652;6.172;2023-07-08T01:20:16;12.75;;;7.00;;
22861;SDS011;11598;50.652;6.172;2023-07-08T01:30:16;13.40;;;7.25;;
22861;SDS011;11598;50.652;6.172;2023-07-08T01:50:25;13.73;;;7.38;;
22861;SDS011;11598;50.652;6.172;2023-07-08T02:00:28;14.65;;;7.03;;
22861;SDS011;11598;50.652;6.172;2023-07-08T02:10:28;15.07;;;7.10;;
22861;SDS011;11598;50.652;6.172;2023-07-08T02:20:28;15.88;;;7.43;;
22861;SDS011;11598;50.652;6.172;2023-07-08T02:30:29;15.70;;;7.43;;
22861;SDS011;11598;50.652;6.172;2023-07-08T02:40:29;11.63;;;6.68;;
22861;SDS011;11598;50.652;6.172;2023-07-08T02:50:29;12.55;;;6.93;;
22861;SDS011;11598;50.652;6.172;2023-07-08T03:00:30;12.35;;;6.63;;
22861;SDS011;11598;50.652;6.172;2023-07-08T03:10:30;13.30;;;7.35;;
22861;SDS011;11598;50.652;6.172;2023-07-08T03:20:30;16.42;;;7.40;;
22861;SDS011;11598;50.652;6.172;2023-07-08T03:30:33;10.48;;;5.63;;
22861;SDS011;11598;50.652;6.172;2023-07-08T03:40:34;10.98;;;5.75;;
22861;SDS011;11598;50.652;6.172;2023-07-08T03:50:34;10.63;;;6.10;;
22861;SDS011;11598;50.652;6.172;2023-07-08T04:00:34;10.52;;;6.00;;
22861;SDS011;11598;50.652;6.172;2023-07-08T04:10:35;12.30;;;6.80;;
22861;SDS011;11598;50.652;6.172;2023-07-08T04:20:35;13.57;;;6.20;;
22861;SDS011;11598;50.652;6.172;2023-07-08T04:30:35;10.55;;;5.88;;
22861;SDS011;11598;50.652;6.172;2023-07-08T04:40:40;14.77;;;5.70;;
22861;SDS011;11598;50.652;6.172;2023-07-08T04:50:41;10.80;;;5.75;;
22861;SDS011;11598;50.652;6.172;2023-07-08T05:00:43;11.10;;;5.38;;
22861;SDS011;11598;50.652;6.172;2023-07-08T05:10:44;8.73;;;4.80;;
22861;SDS011;11598;50.652;6.172;2023-07-08T05:20:49;10.63;;;5.00;;
22861;SDS011;11598;50.652;6.172;2023-07-08T05:30:53;10.07;;;5.10;;
22861;SDS011;11598;50.652;6.172;2023-07-08T05:40:58;9.77;;;5.20;;
22861;SDS011;11598;50.652;6.172;2023-07-08T05:50:58;9.75;;;4.78;;
22861;SDS011;11598;50.652;6.172;2023-07-08T06:00:59;10.23;;;4.50;;
22861;SDS011;11598;50.652;6.172;2023-07-08T06:10:59;10.07;;;5.03;;
22861;SDS011;11598;50.652;6.172;2023-07-08T06:21:00;10.57;;;5.15;;
22861;SDS011;11598;50.652;6.172;2023-07-08T06:31:01;8.77;;;4.15;;
22861;SDS011;11598;50.652;6.172;2023-07-08T06:41:01;8.95;;;5.07;;
22861;SDS011;11598;50.652;6.172;2023-07-08T06:51:02;8.95;;;4.82;;
22861;SDS011;11598;50.652;6.172;2023-07-08T07:01:02;10.30;;;4.85;;
22861;SDS011;11598;50.652;6.172;2023-07-08T07:11:03;9.90;;;4.90;;
22861;SDS011;11598;50.652;6.172;2023-07-08T07:21:03;8.77;;;4.55;;
22861;SDS011;11598;50.652;6.172;2023-07-08T07:31:03;9.48;;;4.85;;
22861;SDS011;11598;50.652;6.172;2023-07-08T07:41:07;10.68;;;5.13;;
22861;SDS011;11598;50.652;6.172;2023-07-08T07:51:10;6.73;;;4.43;;
22861;SDS011;11598;50.652;6.172;2023-07-08T08:01:12;9.38;;;4.25;;
22861;SDS011;11598;50.652;6.172;2023-07-08T08:11:13;9.40;;;4.60;;
22861;SDS011;11598;50.652;6.172;2023-07-08T08:21:13;11.68;;;4.70;;
22861;SDS011;11598;50.652;6.172;2023-07-08T08:31:14;8.73;;;4.80;;
22861;SDS011;11598;50.652;6.172;2023-07-08T08:41:16;11.07;;;4.15;;
22861;SDS011;11598;50.652;6.172;2023-07-08T08:51:19;8.88;;;4.30;;
22861;SDS011;11598;50.652;6.172;2023-07-08T09:01:19;9.83;;;4.63;;
22861;SDS011;11598;50.652;6.172;2023-07-08T09:21:33;10.98;;;4.30;;
22861;SDS011;11598;50.652;6.172;2023-07-08T09:31:53;14.10;;;5.35;;
22861;SDS011;11598;50.652;6.172;2023-07-08T09:41:53;9.80;;;5.75;;
22861;SDS011;11598;50.652;6.172;2023-07-08T09:51:54;10.23;;;4.90;;
22861;SDS011;11598;50.652;6.172;2023-07-08T10:01:54;10.90;;;5.30;;
22861;SDS011;11598;50.652;6.172;2023-07-08T10:12:00;9.93;;;5.32;;
22861;SDS011;11598;50.652;6.172;2023-07-08T10:22:16;8.82;;;4.97;;
22861;SDS011;11598;50.652;6.172;2023-07-08T11:24:26;13.90;;;4.15;;
22861;SDS011;11598;50.652;6.172;2023-07-08T11:34:32;10.88;;;4.63;;
22861;SDS011;11598;50.652;6.172;2023-07-08T11:44:34;10.13;;;4.63;;
22861;SDS011;11598;50.652;6.172;2023-07-08T11:54:35;9.95;;;4.32;;
22861;SDS011;11598;50.652;6.172;2023-07-08T12:04:35;10.85;;;3.53;;
22861;SDS011;11598;50.652;6.172;2023-07-08T12:14:58;7.97;;;3.80;;
22861;SDS011;11598;50.652;6.172;2023-07-08T12:25:11;12.35;;;4.05;;
22861;SDS011;11598;50.652;6.172;2023-07-08T12:35:23;10.15;;;4.20;;
22861;SDS011;11598;50.652;6.172;2023-07-08T12:45:30;8.88;;;4.70;;
22861;SDS011;11598;50.652;6.172;2023-07-08T12:55:31;10.38;;;4.38;;
22861;SDS011;11598;50.652;6.172;2023-07-08T13:05:31;9.27;;;4.40;;
22861;SDS011;11598;50.652;6.172;2023-07-08T13:15:39;8.60;;;3.65;;
22861;SDS011;11598;50.652;6.172;2023-07-08T13:25:42;12.35;;;4.35;;
22861;SDS011;11598;50.652;6.172;2023-07-08T13:35:43;8.43;;;4.28;;
22861;SDS011;11598;50.652;6.172;2023-07-08T13:45:45;10.27;;;4.88;;
22861;SDS011;11598;50.652;6.172;2023-07-08T13:55:48;9.18;;;4.50;;
22861;SDS011;11598;50.652;6.172;2023-07-08T14:05:49;11.30;;;4.65;;
22861;SDS011;11598;50.652;6.172;2023-07-08T14:15:50;9.82;;;5.15;;
22861;SDS011;11598;50.652;6.172;2023-07-08T14:25:50;9.68;;;4.50;;
22861;SDS011;11598;50.652;6.172;2023-07-08T14:35:51;6.40;;;3.67;;
22861;SDS011;11598;50.652;6.172;2023-07-08T14:45:51;11.63;;;5.10;;
22861;SDS011;11598;50.652;6.172;2023-07-08T14:55:55;12.60;;;4.72;;
22861;SDS011;11598;50.652;6.172;2023-07-08T15:05:57;10.27;;;4.75;;
22861;SDS011;11598;50.652;6.172;2023-07-08T15:15:57;8.00;;;3.97;;
22861;SDS011;11598;50.652;6.172;2023-07-08T15:25:58;10.13;;;4.55;;
22861;SDS011;11598;50.652;6.172;2023-07-08T15:35:58;10.45;;;4.15;;
22861;SDS011;11598;50.652;6.172;2023-07-08T15:46:00;11.23;;;4.35;;
22861;SDS011;11598;50.652;6.172;2023-07-08T15:56:02;11.70;;;5.15;;
22861;SDS011;11598;50.652;6.172;2023-07-08T16:06:03;8.27;;;4.90;;
22861;SDS011;11598;50.652;6.172;2023-07-08T16:16:03;11.02;;;5.45;;
22861;SDS011;11598;50.652;6.172;2023-07-08T16:26:04;10.00;;;5.50;;
22861;SDS011;11598;50.652;6.172;2023-07-08T16:36:05;9.95;;;5.03;;
22861;SDS011;11598;50.652;6.172;2023-07-08T16:46:09;10.23;;;5.53;;
22861;SDS011;11598;50.652;6.172;2023-07-08T16:56:10;8.93;;;5.13;;
22861;SDS011;11598;50.652;6.172;2023-07-08T17:06:12;10.20;;;5.35;;
22861;SDS011;11598;50.652;6.172;2023-07-08T17:16:14;9.48;;;5.30;;
22861;SDS011;11598;50.652;6.172;2023-07-08T17:26:18;10.18;;;5.20;;
22861;SDS011;11598;50.652;6.172;2023-07-08T17:36:19;10.57;;;5.28;;
22861;SDS011;11598;50.652;6.172;2023-07-08T17:46:25;11.20;;;5.55;;
22861;SDS011;11598;50.652;6.172;2023-07-08T18:06:35;10.60;;;5.63;;
22861;SDS011;11598;50.652;6.172;2023-07-08T18:16:35;14.18;;;4.70;;
22861;SDS011;11598;50.652;6.172;2023-07-08T18:26:35;14.27;;;5.38;;
22861;SDS011;11598;50.652;6.172;2023-07-08T18:36:36;9.35;;;4.70;;
22861;SDS011;11598;50.652;6.172;2023-07-08T18:46:37;9.48;;;4.95;;
22861;SDS011;11598;50.652;6.172;2023-07-08T18:56:37;9.60;;;5.18;;
22861;SDS011;11598;50.652;6.172;2023-07-08T19:06:37;8.88;;;4.90;;
22861;SDS011;11598;50.652;6.172;2023-07-08T19:16:38;10.85;;;5.50;;
22861;SDS011;11598;50.652;6.172;2023-07-08T19:26:38;9.10;;;5.03;;
22861;SDS011;11598;50.652;6.172;2023-07-08T19:36:38;11.88;;;6.18;;
22861;SDS011;11598;50.652;6.172;2023-07-08T19:46:39;14.57;;;5.53;;
22861;SDS011;11598;50.652;6.172;2023-07-08T19:56:40;12.18;;;5.82;;
22861;SDS011;11598;50.652;6.172;2023-07-08T20:06:40;15.63;;;6.03;;
22861;SDS011;11598;50.652;6.172;2023-07-08T20:16:43;11.55;;;5.93;;
22861;SDS011;11598;50.652;6.172;2023-07-08T20:26:43;15.55;;;6.68;;
22861;SDS011;11598;50.652;6.172;2023-07-08T20:36:45;12.75;;;5.82;;
22861;SDS011;11598;50.652;6.172;2023-07-08T20:46:46;10.45;;;6.10;;
22861;SDS011;11598;50.652;6.172;2023-07-08T20:56:49;10.65;;;6.50;;
22861;SDS011;11598;50.652;6.172;2023-07-08T21:06:49;11.40;;;6.28;;
22861;SDS011;11598;50.652;6.172;2023-07-08T21:16:49;11.27;;;6.38;;
22861;SDS011;11598;50.652;6.172;2023-07-08T21:26:50;9.60;;;5.60;;
22861;SDS011;11598;50.652;6.172;2023-07-08T21:36:50;10.32;;;5.97;;
22861;SDS011;11598;50.652;6.172;2023-07-08T21:46:51;10.60;;;5.95;;
22861;SDS011;11598;50.652;6.172;2023-07-08T21:56:51;12.68;;;6.63;;
22861;SDS011;11598;50.652;6.172;2023-07-08T22:06:51;9.27;;;5.22;;
22861;SDS011;11598;50.652;6.172;2023-07-08T22:16:52;10.15;;;5.65;;
22861;SDS011;11598;50.652;6.172;2023-07-08T22:26:52;13.48;;;6.35;;
22861;SDS011;11598;50.652;6.172;2023-07-08T22:36:53;9.80;;;5.45;;
22861;SDS011;11598;50.652;6.172;2023-07-08T22:46:53;9.70;;;5.60;;
22861;SDS011;11598;50.652;6.172;2023-07-08T22:56:53;9.68;;;6.15;;
22861;SDS011;11598;50.652;6.172;2023-07-08T23:06:54;12.23;;;5.57;;
22861;SDS011;11598;50.652;6.172;2023-07-08T23:16:54;11.70;;;6.30;;
22861;SDS011;11598;50.652;6.172;2023-07-08T23:26:56;12.23;;;6.18;;
22861;SDS011;11598;50.652;6.172;2023-07-08T23:36:56;11.50;;;5.38;;
22861;SDS011;11598;50.652;6.172;2023-07-08T23:47:02;9.85;;;5.25;;
22861;SDS011;11598;50.652;6.172;2023-07-08T23:57:03;11.60;;;5.82;;
